KBCK

Details ICAO KBCK
Name Black River Falls Area
Region United States
Timezone America/Chicago (UTC-5.0)
Plans Departing 1
Arriving 3
Stats Elevation 836 ft / 255 m (AMSL)
Location 44.250739° -90.855282°
Runways 1
Magnetic Variation 1.712° W
Sunrise 2018-05-27 10:27:12 UTC / 2018-05-27 05:27:12 Local
Sunset 2018-05-28 01:36:53 UTC / 2018-05-27 20:36:53 Local
Advertisement - Login to hide

Runways

ID Width Length Bearing (true) Bearing (mag) Surface Threshold Offset Overrun Length
08 75 ft / 23 m 4,591 ft / 1,399 m 80.41° 82.12° Asphalt 0 ft / 0 m 0 ft / 0 m
26 75 ft / 23 m 4,591 ft / 1,399 m 260.43° 262.14° Asphalt 0 ft / 0 m 0 ft / 0 m

Map

Weather


0- 5 10 15 20 25 30 35+ Temperature / ° C

Clouds and Precipitation
Forecast for 2018-05-27 12:00 UTC. Updated an hour ago

Ground ~20,000 ft ~40,000 ft Winds

METAR

KBCK 271235Z AUTO 00000KT 10SM CLR 20/19 A2982 RMK AO2 T02040192

TAF

Not found

Frequencies

Unicom 122.90 MHz CTAF
Warning: Do not use this data for real-world aviation or navigation. No guarantee of current accuracy is given.